Time;durP1;ratioP1;P1;durP2;ratioP2;P2;SDS_P1;SDS_P2;PMS_P1;PMS_P2;Temp;Humidity;BMP_temperature;BMP_pressure;BME280_temperature;BME280_humidity;BME280_pressure;Samples;Min_cycle;Max_cycle;Signal;HPM_P1;HPM_P2
2022/10/06 00:03:41;;;;;;;18.40;9.00;;;;;;;13.11;62.27;99661.77;223999;1254;139463;-66
2022/10/06 00:08:45;;;;;;;12.90;8.00;;;;;;;13.09;62.17;99665.13;224067;1264;139367;-65
2022/10/06 00:13:48;;;;;;;16.30;9.10;;;;;;;13.04;62.15;99671.98;223929;1251;139221;-63
2022/10/06 00:18:52;;;;;;;17.60;9.60;;;;;;;12.96;62.24;99673.95;224917;1243;139249;-63
2022/10/06 00:23:55;;;;;;;17.20;9.60;;;;;;;12.83;61.93;99676.48;224140;1251;139333;-65
2022/10/06 00:28:58;;;;;;;16.90;10.00;;;;;;;12.72;61.86;99675.90;223998;1254;139408;-64
2022/10/06 00:34:01;;;;;;;16.70;9.90;;;;;;;12.65;62.01;99680.27;224571;1256;246609;-63
2022/10/06 00:39:04;;;;;;;14.50;8.90;;;;;;;12.56;62.06;99687.77;224090;1249;139092;-63
2022/10/06 00:44:07;;;;;;;13.30;9.00;;;;;;;12.47;62.16;99690.96;224161;1251;139818;-67
2022/10/06 00:49:10;;;;;;;13.10;9.20;;;;;;;12.46;62.35;99694.75;224224;1248;140366;-66
2022/10/06 00:54:13;;;;;;;15.00;9.20;;;;;;;12.45;62.51;99696.56;224161;1254;139776;-66
2022/10/06 00:59:17;;;;;;;14.60;9.40;;;;;;;12.53;63.00;99701.98;224073;1251;139869;-65
2022/10/06 01:04:23;;;;;;;15.10;10.00;;;;;;;12.82;63.81;99705.39;224800;1243;141171;-64
2022/10/06 01:09:27;;;;;;;15.80;9.00;;;;;;;13.05;63.65;99712.39;224533;1244;139405;-66
2022/10/06 01:14:31;;;;;;;12.90;8.50;;;;;;;13.23;63.58;99716.98;224801;1236;139362;-67
2022/10/06 01:20:06;;;;;;;20.90;9.40;;;;;;;13.33;63.26;99719.20;224071;1254;139204;-63
2022/10/06 01:25:13;;;;;;;12.40;8.40;;;;;;;13.45;63.38;99722.55;223926;1254;140582;-62
2022/10/06 01:30:17;;;;;;;;;;;;;;;13.54;63.13;99726.14;224767;1244;139421;-63
2022/10/06 01:35:21;;;;;;;15.00;9.30;;;;;;;13.61;62.99;99726.90;224086;1254;125479;-68
2022/10/06 01:40:27;;;;;;;16.20;9.80;;;;;;;13.65;62.87;99729.52;224087;1254;139488;-69
2022/10/06 01:45:32;;;;;;;17.00;9.60;;;;;;;13.69;62.73;99728.34;224729;1244;139981;-69
2022/10/06 01:50:35;;;;;;;14.40;8.90;;;;;;;13.79;62.75;99728.80;224719;1237;139777;-73
2022/10/06 01:55:38;;;;;;;15.90;8.90;;;;;;;13.85;62.58;99726.59;224047;1248;139732;-68
2022/10/06 02:00:41;;;;;;;13.30;8.30;;;;;;;13.93;62.60;99727.67;223954;1254;139160;-68
2022/10/06 02:05:44;;;;;;;11.90;7.60;;;;;;;13.99;62.48;99730.58;224046;1252;140084;-68
2022/10/06 02:10:48;;;;;;;11.10;7.20;;;;;;;14.01;62.27;99732.19;224162;1251;139694;-68
2022/10/06 02:15:57;;;;;;;20.70;8.20;;;;;;;14.02;62.31;99735.69;223966;1254;139360;-65
2022/10/06 02:21:02;;;;;;;15.90;9.30;;;;;;;14.03;61.87;99737.23;224491;1244;245373;-69
2022/10/06 02:26:05;;;;;;;16.20;8.80;;;;;;;14.00;61.80;99737.63;224069;1251;139979;-69
2022/10/06 02:31:09;;;;;;;14.20;8.90;;;;;;;13.96;61.76;99739.09;224073;1250;140216;-69
2022/10/06 02:36:15;;;;;;;22.60;9.80;;;;;;;13.88;61.58;99742.63;224091;1252;140149;-66
2022/10/06 02:41:18;;;;;;;15.70;9.30;;;;;;;13.79;61.63;99744.86;224149;1251;140542;-66
2022/10/06 02:46:22;;;;;;;19.20;8.50;;;;;;;13.76;61.58;99747.71;224019;1254;139088;-66
2022/10/06 02:51:26;;;;;;;20.70;9.80;;;;;;;13.81;61.64;99742.05;224041;1251;139576;-66
2022/10/06 02:56:29;;;;;;;17.10;9.70;;;;;;;13.88;61.80;99745.48;224072;1255;140044;-66
2022/10/06 03:01:32;;;;;;;65.40;41.00;;;;;;;13.95;61.91;99743.63;224044;1245;139588;-66
2022/10/06 03:06:42;;;;;;;19.40;10.20;;;;;;;13.99;61.85;99741.44;223966;1251;139622;-66
2022/10/06 03:11:57;;;;;;;19.60;10.10;;;;;;;13.94;61.51;99751.02;224031;1253;139578;-66
2022/10/06 03:17:13;;;;;;;83.50;58.10;;;;;;;13.92;61.65;99756.84;224866;1241;140470;-68
2022/10/06 03:22:21;;;;;;;19.60;10.90;;;;;;;13.88;61.66;99756.23;224730;1235;139574;-66
2022/10/06 03:27:27;;;;;;;17.90;10.20;;;;;;;13.83;61.61;99758.48;224073;1250;139440;-66
2022/10/06 03:32:34;;;;;;;17.80;9.60;;;;;;;13.77;61.56;99757.09;224149;1254;139532;-66
2022/10/06 03:37:37;;;;;;;18.10;9.70;;;;;;;13.72;61.69;99753.31;224746;1229;140142;-66
2022/10/06 03:42:41;;;;;;;18.70;9.50;;;;;;;13.68;61.53;99753.77;223993;1246;139313;-70
2022/10/06 03:47:44;;;;;;;17.60;9.60;;;;;;;13.60;61.59;99756.94;224094;1247;139264;-69
2022/10/06 03:52:50;;;;;;;14.00;8.80;;;;;;;13.57;61.77;99764.08;224222;1242;140133;-69
2022/10/06 03:57:56;;;;;;;12.70;8.40;;;;;;;13.59;61.87;99767.70;224118;1251;139478;-65
2022/10/06 04:02:59;;;;;;;15.60;9.40;;;;;;;13.60;61.84;99769.96;224081;1251;139429;-68
2022/10/06 04:08:02;;;;;;;13.90;9.10;;;;;;;13.54;61.78;99768.53;224683;1241;139612;-66
2022/10/06 04:13:05;;;;;;;17.10;8.70;;;;;;;13.47;61.73;99770.23;224714;1244;139374;-65
2022/10/06 04:18:08;;;;;;;12.50;8.10;;;;;;;13.37;61.77;99779.24;224829;1243;139769;-65
2022/10/06 04:23:11;;;;;;;16.30;9.70;;;;;;;13.27;61.90;99782.70;224182;1251;139261;-65
2022/10/06 04:28:14;;;;;;;19.60;10.40;;;;;;;13.16;61.81;99782.08;224751;1244;141304;-66
2022/10/06 04:33:18;;;;;;;16.20;9.90;;;;;;;13.09;62.06;99787.86;224130;1247;140052;-66
2022/10/06 04:38:22;;;;;;;23.80;10.50;;;;;;;13.03;62.06;99788.19;224712;1244;139271;-67
2022/10/06 04:43:26;;;;;;;20.30;10.10;;;;;;;12.98;62.36;99786.02;224017;1258;139700;-66
2022/10/06 04:48:31;;;;;;;15.30;9.30;;;;;;;12.97;62.22;99788.23;224693;1240;141230;-66
2022/10/06 04:53:34;;;;;;;19.10;9.90;;;;;;;12.98;62.41;99792.78;224178;1245;138894;-68
2022/10/06 04:58:40;;;;;;;13.90;8.80;;;;;;;13.02;62.73;99801.61;224052;1245;139295;-66
2022/10/06 05:03:46;;;;;;;15.60;9.20;;;;;;;13.16;62.93;99799.92;224091;1248;139147;-66
2022/10/06 05:08:52;;;;;;;20.30;8.90;;;;;;;13.23;62.63;99805.72;224751;1236;139198;-67
2022/10/06 05:13:57;;;;;;;18.10;9.10;;;;;;;13.28;62.73;99803.86;223983;1254;139253;-66
2022/10/06 05:19:02;;;;;;;14.50;9.40;;;;;;;13.31;62.74;99808.84;224037;1251;141159;-66
2022/10/06 05:24:06;;;;;;;19.50;9.30;;;;;;;13.35;62.67;99811.08;223980;1247;139893;-65
2022/10/06 05:29:09;;;;;;;19.10;9.10;;;;;;;13.37;62.64;99809.72;224012;1251;140027;-64
2022/10/06 05:34:13;;;;;;;16.90;8.10;;;;;;;13.37;62.48;99815.73;224088;1247;139086;-64
2022/10/06 05:39:16;;;;;;;15.30;7.70;;;;;;;13.41;62.69;99813.39;224099;1253;142561;-65
2022/10/06 05:44:26;;;;;;;15.30;7.80;;;;;;;13.47;62.82;99819.20;224046;1248;139129;-66
2022/10/06 05:49:30;;;;;;;12.70;7.70;;;;;;;13.55;62.84;99821.09;224621;1244;140049;-65
2022/10/06 05:54:36;;;;;;;16.90;7.90;;;;;;;13.62;62.90;99822.61;224044;1244;140071;-64
2022/10/06 05:59:41;;;;;;;17.90;8.40;;;;;;;13.67;63.06;99825.69;224144;1251;139321;-66
2022/10/06 06:04:44;;;;;;;13.30;7.40;;;;;;;13.75;63.05;99835.73;224237;1251;139133;-65
2022/10/06 06:09:48;;;;;;;16.00;7.00;;;;;;;13.83;63.11;99847.13;224062;1251;140062;-66
2022/10/06 06:20:27;;;;;;;18.40;7.60;;;;;;;14.03;62.81;99864.84;224790;1237;140377;-67
2022/10/06 06:25:30;;;;;;;12.80;6.80;;;;;;;14.13;62.85;99867.05;224687;1236;141016;-66
2022/10/06 06:30:34;;;;;;;17.20;6.80;;;;;;;14.24;62.82;99879.71;224103;1250;139948;-67
2022/10/06 06:35:37;;;;;;;12.30;6.80;;;;;;;14.34;62.81;99885.52;224795;1244;139545;-67
2022/10/06 06:40:40;;;;;;;11.50;6.90;;;;;;;14.40;62.63;99888.52;224177;1245;141075;-65
2022/10/06 06:45:44;;;;;;;16.90;6.90;;;;;;;14.47;62.58;99891.65;224012;1253;140202;-67
2022/10/06 06:50:59;;;;;;;13.70;6.40;;;;;;;14.53;62.52;99908.05;224785;1244;139289;-69
2022/10/06 06:56:05;;;;;;;;;;;;;;;14.59;62.33;99916.60;224107;1254;140017;-66
2022/10/06 07:01:13;;;;;;;15.00;6.90;;;;;;;14.63;62.35;99920.12;224210;1251;128037;-65
2022/10/06 07:06:17;;;;;;;18.40;7.60;;;;;;;14.66;62.15;99928.45;223993;1237;138911;-64
2022/10/06 07:11:27;;;;;;;16.70;7.40;;;;;;;14.67;62.15;99937.52;224103;1248;139260;-66
2022/10/06 07:27:41;;;;;;;12.20;5.90;;;;;;;14.91;62.45;99954.00;224591;1235;140106;-65
2022/10/06 07:32:49;;;;;;;14.50;5.50;;;;;;;15.09;62.47;99953.36;223950;1244;140559;-65
2022/10/06 07:37:52;;;;;;;18.50;6.00;;;;;;;15.25;62.38;99955.52;224003;1251;139340;-65
2022/10/06 07:42:58;;;;;;;13.20;7.30;;;;;;;15.38;62.31;99958.39;223963;1241;140006;-65
2022/10/06 07:48:17;;;;;;;11.90;5.80;;;;;;;15.52;61.99;99964.46;224606;1240;140022;-67
2022/10/06 07:53:28;;;;;;;12.70;6.90;;;;;;;15.62;61.87;99968.61;224751;1244;139659;-67
2022/10/06 07:58:38;;;;;;;15.50;7.30;;;;;;;15.75;61.91;99967.36;224654;1246;141836;-68
2022/10/06 08:03:43;;;;;;;19.50;6.70;;;;;;;15.83;61.72;99972.87;223918;1246;139722;-66
2022/10/06 08:08:47;;;;;;;14.40;7.10;;;;;;;15.96;61.78;99973.12;224617;1239;139052;-67
2022/10/06 08:13:54;;;;;;;12.80;7.00;;;;;;;16.10;61.80;99978.38;224018;1245;140849;-67
2022/10/06 08:18:58;;;;;;;13.40;7.50;;;;;;;16.25;61.61;99988.40;224034;1248;140028;-67
2022/10/06 08:24:01;;;;;;;16.50;7.70;;;;;;;16.36;61.50;99997.13;224686;1244;139601;-67
2022/10/06 08:29:04;;;;;;;19.40;8.90;;;;;;;16.46;61.35;100001.63;224782;1237;140365;-67
2022/10/06 08:34:07;;;;;;;19.00;7.70;;;;;;;16.55;61.23;100009.26;224062;1251;141073;-67
2022/10/06 08:39:13;;;;;;;20.70;7.60;;;;;;;16.65;61.16;100012.48;224753;1230;139746;-67
2022/10/06 08:44:37;;;;;;;13.60;6.70;;;;;;;16.80;61.02;100017.71;223913;1251;140544;-67
2022/10/06 08:49:46;;;;;;;16.30;6.70;;;;;;;16.99;61.17;100018.11;223949;1251;140411;-68
2022/10/06 08:55:24;;;;;;;12.50;5.90;;;;;;;17.21;61.19;100017.16;224104;1254;139949;-66
2022/10/06 09:00:32;;;;;;;10.80;5.00;;;;;;;17.41;60.99;100018.93;224060;1248;140182;-67
2022/10/06 09:05:37;;;;;;;12.00;5.10;;;;;;;17.56;60.80;100020.31;224160;1258;141125;-67
2022/10/06 09:11:10;;;;;;;11.40;4.80;;;;;;;17.68;60.59;100020.16;224823;1237;139506;-68
2022/10/06 09:16:26;;;;;;;12.60;5.20;;;;;;;17.82;60.20;100027.23;224593;1246;140304;-67
2022/10/06 09:21:38;;;;;;;10.70;5.20;;;;;;;17.92;60.10;100031.82;224732;1244;140853;-67
2022/10/06 09:26:44;;;;;;;11.60;4.70;;;;;;;18.07;60.17;100038.20;224040;1252;139568;-67
2022/10/06 09:31:49;;;;;;;15.60;4.80;;;;;;;18.23;60.03;100045.36;224093;1244;139555;-68
2022/10/06 09:36:59;;;;;;;7.00;4.50;;;;;;;18.32;59.80;100039.45;224052;1245;140923;-66
2022/10/06 09:42:34;;;;;;;11.50;4.20;;;;;;;18.46;59.60;100041.95;224741;1237;139473;-66
2022/10/06 09:47:45;;;;;;;9.70;4.20;;;;;;;18.67;59.55;100042.66;224163;1248;141250;-66
2022/10/06 09:52:48;;;;;;;7.40;3.40;;;;;;;18.85;59.56;100047.89;224153;1245;140094;-65
2022/10/06 09:57:55;;;;;;;8.00;3.70;;;;;;;18.99;58.97;100053.23;224055;1259;139825;-66
2022/10/06 10:03:02;;;;;;;5.80;3.60;;;;;;;19.10;58.80;100053.74;223951;1251;140679;-65
2022/10/06 10:08:28;;;;;;;6.90;3.20;;;;;;;19.25;58.60;100056.89;224011;1251;141677;-66
2022/10/06 10:13:41;;;;;;;6.50;3.70;;;;;;;19.39;58.29;100058.41;224727;1244;139140;-65
2022/10/06 10:18:49;;;;;;;10.10;3.70;;;;;;;19.54;58.12;100056.45;224709;1244;139331;-65
2022/10/06 10:23:57;;;;;;;6.20;3.80;;;;;;;19.72;57.91;100055.69;224048;1259;140306;-64
2022/10/06 10:29:19;;;;;;;9.50;3.60;;;;;;;19.88;57.68;100048.96;224046;1254;139901;-65
2022/10/06 10:34:43;;;;;;;10.70;3.80;;;;;;;20.00;57.51;100045.79;224045;1251;140016;-65
2022/10/06 10:40:18;;;;;;;5.70;3.50;;;;;;;20.14;57.32;100042.64;224048;1251;140437;-65
2022/10/06 10:45:34;;;;;;;8.10;3.50;;;;;;;20.25;57.28;100038.73;223933;1251;139910;-65
2022/10/06 10:50:57;;;;;;;5.10;3.20;;;;;;;20.33;56.98;100037.89;224653;1250;139315;-65
2022/10/06 10:56:02;;;;;;;5.90;2.90;;;;;;;20.40;56.76;100039.77;224773;1243;140659;-65
2022/10/06 11:01:24;;;;;;;7.10;3.00;;;;;;;20.50;56.64;100036.99;223983;1243;139301;-65
2022/10/06 11:06:29;;;;;;;7.70;3.20;;;;;;;20.57;56.37;100040.40;223968;1251;139737;-65
2022/10/06 11:11:42;;;;;;;4.10;2.60;;;;;;;20.59;56.20;100040.92;224738;1244;141116;-65
2022/10/06 11:17:12;;;;;;;11.50;3.80;;;;;;;20.62;56.10;100046.04;224694;1244;140018;-65
2022/10/06 11:22:30;;;;;;;7.70;3.10;;;;;;;20.71;56.21;100047.59;223941;1254;139860;-66
2022/10/06 11:28:00;;;;;;;9.00;3.20;;;;;;;20.74;55.79;100044.38;224043;1250;139983;-66
2022/10/06 11:33:16;;;;;;;6.00;3.00;;;;;;;20.79;55.77;100046.91;223919;1251;139718;-65
2022/10/06 11:38:30;;;;;;;9.60;3.40;;;;;;;20.91;55.72;100049.27;223984;1245;140599;-67
2022/10/06 11:43:53;;;;;;;6.90;3.30;;;;;;;21.02;55.43;100051.67;224683;1242;139831;-65
2022/10/06 11:49:27;;;;;;;8.00;3.30;;;;;;;21.16;55.32;100049.90;223856;1254;140493;-65
2022/10/06 11:54:39;;;;;;;11.40;3.40;;;;;;;21.22;54.99;100056.92;224041;1245;140009;-65
2022/10/06 11:59:42;;;;;;;6.80;3.20;;;;;;;21.22;54.76;100057.66;224139;1251;140690;-64
2022/10/06 12:05:11;;;;;;;9.90;3.00;;;;;;;21.25;54.88;100062.64;224711;1243;141988;-65
2022/10/06 12:10:34;;;;;;;8.40;3.40;;;;;;;21.30;54.77;100062.02;224034;1246;141491;-65
2022/10/06 12:16:02;;;;;;;6.60;3.30;;;;;;;21.31;54.74;100069.69;223964;1254;140237;-64
2022/10/06 12:21:44;;;;;;;6.60;3.00;;;;;;;21.37;54.56;100074.98;223915;1252;142489;-64
2022/10/06 12:26:50;;;;;;;8.00;3.80;;;;;;;21.44;54.43;100075.20;224031;1251;139614;-64
2022/10/06 12:32:02;;;;;;;9.90;4.60;;;;;;;21.47;54.39;100073.23;224006;1235;140679;-64
2022/10/06 12:37:29;;;;;;;5.70;3.40;;;;;;;21.47;54.23;100080.85;224000;1255;140697;-64
2022/10/06 12:42:32;;;;;;;10.50;3.20;;;;;;;21.39;54.07;100089.16;223984;1251;139987;-64
2022/10/06 12:47:42;;;;;;;7.20;3.40;;;;;;;21.32;54.16;100084.17;224165;1251;140171;-64
2022/10/06 12:52:51;;;;;;;8.50;3.30;;;;;;;21.28;54.24;100083.30;224007;1257;140224;-63
2022/10/06 12:57:54;;;;;;;8.20;3.40;;;;;;;21.26;54.19;100076.38;224056;1251;139252;-64
2022/10/06 13:02:59;;;;;;;8.50;3.90;;;;;;;21.34;54.44;100072.26;223947;1254;139318;-66
2022/10/06 13:08:19;;;;;;;;;;;;;;;21.56;54.29;100080.77;223895;1254;139710;-66
2022/10/06 13:13:23;;;;;;;7.80;3.50;;;;;;;21.77;54.28;100083.72;224022;1252;126184;-67
2022/10/06 13:18:27;;;;;;;9.10;3.10;;;;;;;21.86;53.84;100082.36;224017;1250;139455;-66
2022/10/06 13:23:32;;;;;;;6.30;3.20;;;;;;;21.93;53.69;100080.08;224094;1252;140055;-67
2022/10/06 13:28:38;;;;;;;5.40;3.40;;;;;;;21.92;53.53;100077.13;224022;1251;140195;-67
2022/10/06 13:33:44;;;;;;;10.30;3.40;;;;;;;21.84;53.32;100082.48;223986;1246;140391;-67
2022/10/06 13:38:47;;;;;;;8.20;3.40;;;;;;;21.80;53.52;100084.18;223975;1251;140201;-66
2022/10/06 13:44:13;;;;;;;7.20;3.30;;;;;;;21.72;53.28;100088.73;224006;1248;139978;-66
2022/10/06 13:49:26;;;;;;;5.40;2.90;;;;;;;21.62;53.38;100088.55;224042;1250;140693;-66
2022/10/06 13:54:45;;;;;;;7.30;3.30;;;;;;;21.60;53.44;100098.30;224639;1243;139474;-66
2022/10/06 14:00:15;;;;;;;6.90;2.90;;;;;;;21.56;53.46;100095.04;224780;1243;139484;-66
2022/10/06 14:05:25;;;;;;;6.50;2.70;;;;;;;21.51;53.36;100102.52;224051;1251;139755;-67
2022/10/06 14:10:40;;;;;;;4.00;2.40;;;;;;;21.45;53.37;100107.94;223949;1245;140619;-65
2022/10/06 14:15:47;;;;;;;11.90;2.50;;;;;;;21.42;53.35;100108.61;223867;1251;140375;-65
2022/10/06 14:20:52;;;;;;;4.90;2.90;;;;;;;21.38;53.45;100116.17;223883;1253;139991;-65
2022/10/06 14:25:55;;;;;;;6.20;3.00;;;;;;;21.34;53.34;100119.11;223950;1254;139804;-65
2022/10/06 14:30:59;;;;;;;5.40;3.00;;;;;;;21.26;53.53;100127.30;223883;1254;139596;-65
2022/10/06 14:36:03;;;;;;;27.30;17.90;;;;;;;21.22;53.65;100128.35;224047;1247;140421;-66
2022/10/06 14:41:06;;;;;;;9.20;3.60;;;;;;;21.23;53.83;100133.77;224072;1252;139708;-64
2022/10/06 14:46:10;;;;;;;7.40;3.20;;;;;;;21.19;53.81;100131.73;223980;1252;140116;-66
2022/10/06 14:51:15;;;;;;;7.50;3.20;;;;;;;21.15;53.77;100134.61;223847;1257;140353;-66
2022/10/06 14:56:20;;;;;;;9.40;3.60;;;;;;;21.14;54.00;100134.05;223873;1254;139926;-66
2022/10/06 15:01:25;;;;;;;9.70;3.50;;;;;;;21.13;54.11;100138.11;223953;1255;140596;-66
2022/10/06 15:11:50;;;;;;;7.80;3.10;;;;;;;21.08;54.23;100154.24;224769;1244;139581;-66
2022/10/06 15:16:54;;;;;;;8.00;3.70;;;;;;;21.07;54.35;100154.27;224633;1244;139888;-66
2022/10/06 15:21:57;;;;;;;6.90;3.70;;;;;;;21.07;54.39;100162.08;224015;1250;139944;-66
2022/10/06 15:32:26;;;;;;;10.60;3.50;;;;;;;21.02;54.55;100164.67;224689;1244;139598;-66
2022/10/06 15:37:30;;;;;;;15.80;4.50;;;;;;;21.00;54.68;100170.77;224737;1247;139909;-66
2022/10/06 15:42:32;;;;;;;8.70;3.20;;;;;;;20.99;54.73;100176.84;224755;1244;139629;-67
2022/10/06 15:47:35;;;;;;;7.80;2.80;;;;;;;20.95;54.93;100182.19;224869;1244;140189;-68
2022/10/06 15:52:38;;;;;;;9.90;3.10;;;;;;;20.92;54.98;100184.45;224060;1254;139537;-68
2022/10/06 15:57:41;;;;;;;9.60;3.50;;;;;;;20.89;55.12;100189.95;223993;1251;139799;-68
2022/10/06 16:02:44;;;;;;;6.80;3.40;;;;;;;20.85;55.22;100197.57;223962;1251;140297;-67
2022/10/06 16:07:47;;;;;;;11.10;3.60;;;;;;;20.82;55.37;100198.33;224026;1252;139437;-67
2022/10/06 16:12:50;;;;;;;12.30;3.80;;;;;;;20.78;55.47;100197.72;224680;1247;141059;-68
2022/10/06 16:17:53;;;;;;;10.80;3.80;;;;;;;20.76;55.62;100203.20;224111;1248;139636;-68
2022/10/06 16:22:56;;;;;;;14.60;3.90;;;;;;;20.72;55.72;100204.40;223980;1251;139434;-69
2022/10/06 16:27:59;;;;;;;14.30;4.30;;;;;;;20.69;55.85;100210.66;223940;1251;139457;-66
2022/10/06 16:33:03;;;;;;;19.20;4.60;;;;;;;20.65;55.94;100213.84;223997;1251;141001;-68
2022/10/06 16:38:06;;;;;;;9.10;3.70;;;;;;;20.62;56.12;100228.19;223992;1250;139506;-69
2022/10/06 16:43:08;;;;;;;9.10;4.10;;;;;;;20.58;56.24;100239.89;224073;1250;139548;-69
2022/10/06 16:48:11;;;;;;;10.90;4.60;;;;;;;20.54;56.33;100248.51;223865;1248;140087;-70
2022/10/06 16:53:16;;;;;;;23.20;6.00;;;;;;;20.50;56.53;100254.98;224055;1254;139873;-70
2022/10/06 16:58:22;;;;;;;24.00;9.20;;;;;;;20.44;56.60;100262.27;223957;1249;139519;-71
2022/10/06 17:03:25;;;;;;;23.30;8.90;;;;;;;20.39;56.89;100265.27;224627;1244;140608;-71
2022/10/06 17:08:29;;;;;;;17.80;7.60;;;;;;;20.27;57.05;100272.16;224714;1244;140325;-69
2022/10/06 17:13:33;;;;;;;12.60;6.10;;;;;;;20.18;57.28;100274.36;224577;1244;140438;-69
2022/10/06 17:18:37;;;;;;;23.00;7.10;;;;;;;20.11;57.62;100281.27;223869;1251;139835;-69
2022/10/06 17:23:41;;;;;;;12.10;5.40;;;;;;;20.05;57.86;100288.59;223988;1247;140249;-70
2022/10/06 17:28:48;;;;;;;91.70;65.10;;;;;;;19.99;58.18;100298.23;224641;1247;141139;-69
2022/10/06 17:33:51;;;;;;;9.20;5.90;;;;;;;19.97;58.33;100303.30;223972;1249;139095;-67
2022/10/06 17:39:00;;;;;;;9.40;4.60;;;;;;;19.89;58.35;100306.13;223943;1251;139321;-69
2022/10/06 17:44:06;;;;;;;6.40;4.10;;;;;;;19.81;58.31;100312.86;223938;1238;139531;-69
2022/10/06 17:49:18;;;;;;;10.10;4.20;;;;;;;19.69;58.45;100312.18;224634;1244;139472;-68
2022/10/06 17:54:25;;;;;;;6.10;4.30;;;;;;;19.58;58.42;100318.80;224751;1243;141076;-68
2022/10/06 17:59:31;;;;;;;129.10;95.80;;;;;;;19.46;58.53;100322.64;224151;1248;139471;-68
2022/10/06 18:04:36;;;;;;;12.10;7.50;;;;;;;19.36;58.72;100322.02;224010;1248;140483;-69
2022/10/06 18:11:31;;;;;;;9.30;4.30;;;;;;;19.27;58.83;100325.90;223941;1249;140454;-68
2022/10/06 18:15:05;;;;;;;10.30;5.60;;;;;;;19.24;58.96;100326.50;224097;1251;140617;-72
2022/10/06 18:20:09;;;;;;;10.40;4.90;;;;;;;19.22;59.04;100322.89;223970;1251;140491;-71
2022/10/06 18:25:15;;;;;;;11.20;4.70;;;;;;;19.15;59.07;100327.02;224083;1253;139878;-70
2022/10/06 18:30:18;;;;;;;7.70;4.30;;;;;;;19.05;59.22;100327.29;224037;1251;139398;-68
2022/10/06 18:35:21;;;;;;;8.50;5.00;;;;;;;18.93;59.34;100333.73;224104;1251;141155;-70
2022/10/06 18:40:56;;;;;;;11.20;6.10;;;;;;;18.81;59.54;100347.77;223977;1260;139858;-67
2022/10/06 18:51:28;;;;;;;9.90;6.00;;;;;;;18.78;60.11;100356.80;224650;1247;142695;-76
2022/10/06 18:56:33;;;;;;;9.00;5.20;;;;;;;18.70;60.20;100361.52;224739;1239;141456;-70
2022/10/06 19:01:44;;;;;;;14.00;5.90;;;;;;;18.67;60.37;100364.77;224680;1252;141368;-67
2022/10/06 19:06:51;;;;;;;11.40;6.50;;;;;;;18.71;60.45;100374.95;224044;1251;140555;-68
2022/10/06 19:11:56;;;;;;;13.30;7.40;;;;;;;18.76;60.67;100377.31;224131;1250;140578;-69
2022/10/06 19:17:04;;;;;;;11.20;6.60;;;;;;;18.80;60.76;100380.98;223995;1248;140109;-74
2022/10/06 19:22:10;;;;;;;14.40;7.00;;;;;;;18.80;60.70;100390.84;224024;1251;139488;-66
2022/10/06 19:27:22;;;;;;;9.30;6.10;;;;;;;18.76;60.64;100396.70;224024;1245;140800;-67
2022/10/06 19:32:30;;;;;;;10.30;6.40;;;;;;;18.65;60.62;100408.80;223947;1254;139362;-67
2022/10/06 19:37:34;;;;;;;10.00;6.60;;;;;;;18.55;60.84;100415.46;224018;1248;139498;-68
2022/10/06 19:42:46;;;;;;;13.80;6.60;;;;;;;18.48;60.87;100420.48;224789;1244;139905;-66
2022/10/06 19:47:50;;;;;;;12.30;6.70;;;;;;;18.42;61.16;100429.53;224068;1251;141213;-66
2022/10/06 19:52:54;;;;;;;12.40;7.50;;;;;;;18.44;61.04;100432.30;224044;1246;140771;-73
2022/10/06 19:57:58;;;;;;;10.00;6.70;;;;;;;18.47;60.98;100441.04;224037;1251;139570;-69
2022/10/06 20:03:06;;;;;;;14.70;6.60;;;;;;;18.50;60.82;100443.00;224039;1251;139645;-67
2022/10/06 20:08:09;;;;;;;9.50;5.80;;;;;;;18.46;60.64;100448.34;224732;1245;139333;-69
2022/10/06 20:13:12;;;;;;;10.50;6.10;;;;;;;18.38;60.49;100453.74;224033;1255;139499;-70
2022/10/06 20:18:15;;;;;;;10.60;6.30;;;;;;;18.32;60.41;100453.32;224769;1244;139427;-71
2022/10/06 20:23:18;;;;;;;14.40;7.60;;;;;;;18.26;60.42;100461.63;224174;1253;139655;-68
2022/10/06 20:28:21;;;;;;;11.10;6.70;;;;;;;18.19;60.58;100471.77;224145;1246;139510;-69
2022/10/06 20:33:24;;;;;;;14.30;6.80;;;;;;;18.10;60.58;100468.45;224774;1244;140102;-69
2022/10/06 20:43:49;;;;;;;10.50;5.90;;;;;;;17.96;60.55;100474.33;224091;1243;140181;-68
2022/10/06 20:48:52;;;;;;;12.20;6.00;;;;;;;17.96;60.82;100476.48;224690;1247;142075;-65
2022/10/06 20:53:55;;;;;;;10.80;6.30;;;;;;;17.94;60.76;100477.87;224076;1251;139953;-68
2022/10/06 20:58:58;;;;;;;10.60;6.80;;;;;;;17.89;60.67;100480.36;224765;1252;140613;-65
2022/10/06 21:04:02;;;;;;;10.40;6.30;;;;;;;17.86;60.69;100479.67;224862;1244;139279;-66
2022/10/06 21:09:08;;;;;;;9.90;6.50;;;;;;;17.80;60.56;100488.19;224120;1247;140337;-66
2022/10/06 21:14:13;;;;;;;10.00;6.10;;;;;;;17.72;60.58;100492.64;224082;1251;139713;-65
2022/10/06 21:19:18;;;;;;;9.70;6.00;;;;;;;17.68;60.49;100491.14;224121;1252;140003;-67
2022/10/06 21:24:24;;;;;;;9.00;5.40;;;;;;;17.60;60.27;100490.92;224052;1251;139245;-67
2022/10/06 21:29:27;;;;;;;9.50;5.20;;;;;;;17.48;60.38;100497.89;224195;1249;141123;-67
2022/10/06 21:34:30;;;;;;;9.90;5.90;;;;;;;17.39;60.37;100503.84;224022;1245;139383;-66
2022/10/06 21:39:33;;;;;;;6.30;4.30;;;;;;;17.34;60.51;100499.16;224034;1238;139649;-67
2022/10/06 21:44:36;;;;;;;10.00;5.00;;;;;;;17.34;60.43;100510.65;224137;1254;140399;-66
2022/10/06 21:49:39;;;;;;;17.40;6.00;;;;;;;17.32;60.23;100513.68;224071;1254;141172;-67
2022/10/06 21:54:42;;;;;;;7.90;5.00;;;;;;;17.31;60.35;100511.77;224748;1238;139746;-65
2022/10/06 21:59:46;;;;;;;8.10;5.20;;;;;;;17.30;60.33;100511.98;224157;1253;139162;-63
2022/10/06 22:04:49;;;;;;;10.30;5.90;;;;;;;17.27;60.36;100509.47;224039;1251;140111;-65
2022/10/06 22:09:51;;;;;;;8.90;5.20;;;;;;;17.22;60.39;100506.95;224671;1244;139698;-64
2022/10/06 22:14:57;;;;;;;11.10;5.70;;;;;;;17.16;60.40;100506.45;224090;1251;139378;-64
2022/10/06 22:20:00;;;;;;;7.20;4.90;;;;;;;17.07;60.14;100502.41;224749;1244;139954;-66
2022/10/06 22:25:04;;;;;;;8.70;5.20;;;;;;;17.02;60.36;100508.43;224762;1244;140111;-68
2022/10/06 22:30:07;;;;;;;10.00;5.10;;;;;;;16.95;60.29;100511.58;224148;1247;139416;-70
2022/10/06 22:35:10;;;;;;;8.40;5.30;;;;;;;16.88;60.33;100517.29;224812;1236;139444;-67
2022/10/06 22:40:13;;;;;;;10.10;5.00;;;;;;;16.83;60.61;100517.75;224081;1251;139272;-66
2022/10/06 22:45:16;;;;;;;6.40;4.70;;;;;;;16.81;60.50;100519.86;224041;1259;140475;-66
2022/10/06 22:50:19;;;;;;;11.70;5.10;;;;;;;16.82;60.50;100514.43;224675;1243;139673;-64
2022/10/06 22:55:22;;;;;;;8.60;5.40;;;;;;;16.79;60.51;100509.06;224023;1248;139364;-68
2022/10/06 23:00:26;;;;;;;7.30;4.60;;;;;;;16.67;60.34;100511.02;224074;1253;139253;-68
2022/10/06 23:05:30;;;;;;;8.60;4.80;;;;;;;16.49;60.31;100516.98;224137;1248;139733;-67
2022/10/06 23:10:34;;;;;;;8.90;5.00;;;;;;;16.33;60.53;100514.79;224695;1234;139829;-67
2022/10/06 23:15:37;;;;;;;8.40;5.50;;;;;;;16.14;60.58;100508.09;224045;1247;139215;-64
2022/10/06 23:20:40;;;;;;;7.80;5.20;;;;;;;16.01;60.65;100506.55;224117;1243;139460;-65
2022/10/06 23:25:44;;;;;;;10.80;5.20;;;;;;;15.84;60.91;100511.72;224073;1245;139534;-66
2022/10/06 23:30:47;;;;;;;8.30;5.10;;;;;;;15.68;61.19;100513.04;224072;1245;139449;-65
2022/10/06 23:36:06;;;;;;;13.00;5.50;;;;;;;15.60;61.35;100510.06;224143;1248;140414;-67
2022/10/06 23:41:09;;;;;;;9.40;5.00;;;;;;;15.54;61.61;100514.52;224720;1244;140716;-68
2022/10/06 23:46:12;;;;;;;8.00;5.10;;;;;;;15.49;61.58;100516.10;224090;1252;139944;-67
2022/10/06 23:51:16;;;;;;;11.50;4.70;;;;;;;15.43;61.69;100518.06;224066;1251;140027;-65